Time;durP1;ratioP1;P1;durP2;ratioP2;P2;SDS_P1;SDS_P2;PMS_P1;PMS_P2;Temp;Humidity;BMP_temperature;BMP_pressure;BME280_temperature;BME280_humidity;BME280_pressure;Samples;Min_cycle;Max_cycle;Signal;HPM_P1;HPM_P2
2024/01/18 00:00:25;;;;;;;24.60;10.87;;;2.20;99.90;;;;;;4988044;28;20729;-67
2024/01/18 00:02:52;;;;;;;27.07;12.07;;;2.10;99.90;;;;;;4986109;28;20195;-67
2024/01/18 00:05:21;;;;;;;39.63;15.60;;;2.20;99.90;;;;;;4992376;28;20294;-70
2024/01/18 00:07:48;;;;;;;41.63;16.30;;;2.20;99.90;;;;;;4980926;28;20196;-68
2024/01/18 00:10:15;;;;;;;34.33;13.50;;;2.20;99.90;;;;;;4991852;28;20191;-68
2024/01/18 00:12:43;;;;;;;25.33;12.03;;;2.20;99.90;;;;;;4992043;28;20199;-69
2024/01/18 00:15:11;;;;;;;38.60;15.90;;;2.20;99.90;;;;;;4985726;28;20189;-70
2024/01/18 00:17:38;;;;;;;37.37;15.60;;;2.60;99.90;;;;;;4987082;28;20230;-70
2024/01/18 00:20:06;;;;;;;34.60;14.10;;;2.20;99.90;;;;;;4991602;28;20294;-70
2024/01/18 00:22:34;;;;;;;41.10;17.63;;;2.20;99.90;;;;;;4994708;28;20223;-70
2024/01/18 00:25:02;;;;;;;53.70;20.80;;;2.30;99.90;;;;;;4994115;28;20224;-69
2024/01/18 00:27:31;;;;;;;47.77;19.33;;;2.30;99.90;;;;;;4977153;28;20686;-70
2024/01/18 00:29:58;;;;;;;46.83;19.43;;;2.30;99.90;;;;;;4987221;28;20211;-70
2024/01/18 00:32:25;;;;;;;41.63;17.73;;;2.20;99.90;;;;;;4993867;28;20196;-70
2024/01/18 00:34:56;;;;;;;41.97;16.27;;;2.30;99.90;;;;;;4987581;28;20204;-70
2024/01/18 00:37:24;;;;;;;46.07;18.57;;;2.30;99.90;;;;;;4987252;28;20199;-70
2024/01/18 00:39:55;;;;;;;42.20;17.40;;;2.30;99.90;;;;;;4993522;28;20203;-69
2024/01/18 00:42:25;;;;;;;44.73;18.43;;;2.30;99.90;;;;;;4990690;28;20208;-70
2024/01/18 00:44:52;;;;;;;43.80;19.17;;;2.30;99.90;;;;;;4989467;28;20217;-70
2024/01/18 00:47:19;;;;;;;36.00;15.50;;;2.30;99.90;;;;;;4993151;28;20196;-70
2024/01/18 00:49:46;;;;;;;34.23;14.33;;;2.30;99.90;;;;;;4964918;28;20218;-70
2024/01/18 00:52:13;;;;;;;29.17;14.00;;;2.30;99.90;;;;;;4969562;28;20212;-68
2024/01/18 00:54:40;;;;;;;29.83;13.90;;;2.30;99.90;;;;;;4993074;28;20200;-68
2024/01/18 00:57:08;;;;;;;27.40;12.90;;;2.40;99.90;;;;;;4987643;28;20203;-69
2024/01/18 00:59:35;;;;;;;42.60;16.33;;;2.40;99.90;;;;;;4978810;28;20279;-68
2024/01/18 01:02:03;;;;;;;32.77;14.57;;;2.40;99.90;;;;;;4983281;28;20192;-68
2024/01/18 01:04:30;;;;;;;32.23;13.80;;;2.40;99.90;;;;;;4984703;28;20547;-68
2024/01/18 01:06:57;;;;;;;28.60;13.40;;;2.40;99.90;;;;;;4990962;28;20222;-67
2024/01/18 01:09:25;;;;;;;29.93;12.90;;;2.50;99.90;;;;;;4986325;28;20622;-69
2024/01/18 01:11:52;;;;;;;25.53;11.87;;;2.50;99.90;;;;;;4987600;28;20212;-68
2024/01/18 01:14:21;;;;;;;25.80;11.47;;;2.50;99.90;;;;;;4985260;28;20195;-68
2024/01/18 01:16:49;;;;;;;33.40;14.73;;;2.60;99.90;;;;;;4983898;28;20251;-68
2024/01/18 01:19:16;;;;;;;29.00;12.47;;;2.60;99.90;;;;;;4988649;28;20203;-68
2024/01/18 01:21:43;;;;;;;34.90;14.27;;;2.60;99.90;;;;;;4975963;28;20544;-68
2024/01/18 01:24:11;;;;;;;36.70;15.17;;;2.60;99.90;;;;;;4987391;28;20230;-68
2024/01/18 01:26:38;;;;;;;29.97;12.23;;;2.60;99.90;;;;;;4987281;28;20216;-68
2024/01/18 01:29:07;;;;;;;29.40;13.10;;;2.60;99.90;;;;;;4987258;28;20208;-67
2024/01/18 01:31:36;;;;;;;24.40;11.77;;;2.50;99.90;;;;;;4987734;28;20599;-69
2024/01/18 01:34:03;;;;;;;38.13;15.47;;;2.60;99.90;;;;;;4986745;28;20200;-68
2024/01/18 01:36:30;;;;;;;30.07;13.47;;;2.50;99.90;;;;;;4992343;28;20243;-69
2024/01/18 01:38:57;;;;;;;28.13;13.37;;;2.50;99.90;;;;;;4991205;28;20275;-70
2024/01/18 01:41:24;;;;;;;23.37;11.57;;;2.50;99.90;;;;;;4992430;28;20273;-70
2024/01/18 01:44:01;;;;;;;29.17;12.87;;;2.50;99.90;;;;;;4991544;28;20563;-69
2024/01/18 01:46:29;;;;;;;29.23;12.97;;;2.50;99.90;;;;;;4974170;28;20235;-70
2024/01/18 01:49:04;;;;;;;29.80;13.13;;;2.50;99.90;;;;;;4990536;28;20216;-70
2024/01/18 01:51:35;;;;;;;27.07;13.07;;;2.40;99.90;;;;;;4966414;28;20200;-68
2024/01/18 01:54:03;;;;;;;38.07;15.00;;;2.40;99.90;;;;;;4983975;28;20192;-69
2024/01/18 01:56:30;;;;;;;38.53;14.73;;;2.40;99.90;;;;;;4992635;28;20195;-67
2024/01/18 01:58:57;;;;;;;29.23;13.93;;;2.30;99.90;;;;;;4983877;28;20250;-68
2024/01/18 02:01:25;;;;;;;34.20;14.67;;;2.30;99.90;;;;;;4988456;28;20196;-68
2024/01/18 02:03:55;;;;;;;32.60;14.30;;;2.30;99.90;;;;;;4988927;28;20207;-66
2024/01/18 02:06:25;;;;;;;31.10;13.27;;;2.30;99.90;;;;;;4992343;28;20231;-68
2024/01/18 02:08:53;;;;;;;30.67;13.37;;;2.30;99.90;;;;;;4978722;28;20678;-68
2024/01/18 02:11:20;;;;;;;49.43;19.87;;;2.30;99.90;;;;;;4991641;28;20191;-66
2024/01/18 02:13:47;;;;;;;42.60;17.23;;;2.40;99.90;;;;;;4978023;28;20207;-66
2024/01/18 02:16:14;;;;;;;37.17;15.87;;;2.40;99.90;;;;;;4992657;28;20287;-68
2024/01/18 02:18:44;;;;;;;29.17;13.07;;;2.40;99.90;;;;;;4980886;28;20215;-67
2024/01/18 02:21:11;;;;;;;28.73;12.73;;;2.40;99.90;;;;;;4989517;28;20226;-66
2024/01/18 02:23:41;;;;;;;41.77;14.17;;;2.40;99.90;;;;;;4978446;28;20563;-67
2024/01/18 02:26:10;;;;;;;40.70;15.57;;;2.30;99.90;;;;;;4987687;28;20263;-67
2024/01/18 02:28:37;;;;;;;29.50;13.50;;;2.30;99.90;;;;;;4989053;28;20282;-70
2024/01/18 02:31:04;;;;;;;27.00;11.83;;;2.40;99.90;;;;;;4984230;28;20203;-67
2024/01/18 02:33:32;;;;;;;26.03;12.23;;;2.40;99.90;;;;;;4983921;28;20203;-66
2024/01/18 02:36:00;;;;;;;33.80;14.70;;;2.40;99.90;;;;;;4990746;28;20682;-69
2024/01/18 02:38:27;;;;;;;34.17;14.47;;;2.40;99.90;;;;;;4989875;28;20200;-69
2024/01/18 02:40:54;;;;;;;26.07;12.20;;;2.40;99.90;;;;;;4988497;28;20207;-69
2024/01/18 02:43:23;;;;;;;35.03;14.20;;;2.40;99.90;;;;;;4990320;28;20582;-69
2024/01/18 02:45:52;;;;;;;29.80;14.57;;;2.40;99.90;;;;;;4988632;28;20203;-69
2024/01/18 02:48:19;;;;;;;23.97;11.37;;;2.40;99.90;;;;;;4988775;28;20202;-69
2024/01/18 02:50:46;;;;;;;25.13;11.43;;;2.40;99.90;;;;;;4990096;28;20219;-69
2024/01/18 02:53:13;;;;;;;25.13;11.70;;;2.40;99.90;;;;;;4968503;28;20662;-68
2024/01/18 02:55:40;;;;;;;21.57;10.07;;;2.40;99.90;;;;;;4973834;28;20697;-68
2024/01/18 02:58:07;;;;;;;27.73;12.93;;;2.40;99.90;;;;;;4973675;28;20544;-68
2024/01/18 03:00:36;;;;;;;28.67;13.93;;;2.40;99.90;;;;;;4990838;28;20214;-69
2024/01/18 03:03:03;;;;;;;30.57;14.50;;;2.40;99.90;;;;;;4986639;28;20213;-68
2024/01/18 03:05:30;;;;;;;29.07;13.23;;;1.40;99.90;;;;;;4989448;28;20235;-69
2024/01/18 03:07:57;;;;;;;24.83;12.33;;;2.30;99.90;;;;;;4986813;28;20309;-68
2024/01/18 03:10:24;;;;;;;25.00;11.40;;;2.40;99.90;;;;;;4990501;28;20207;-68
2024/01/18 03:12:51;;;;;;;27.23;12.40;;;2.30;99.90;;;;;;4988475;28;20201;-67
2024/01/18 03:15:18;;;;;;;21.90;10.23;;;2.30;99.90;;;;;;4980510;28;20200;-68
2024/01/18 03:17:49;;;;;;;30.93;12.10;;;2.30;99.90;;;;;;4988861;28;20283;-67
2024/01/18 03:20:17;;;;;;;25.40;11.37;;;2.30;99.90;;;;;;4987252;28;20307;-67
2024/01/18 03:22:44;;;;;;;28.03;12.07;;;2.30;99.90;;;;;;4973659;28;20575;-68
2024/01/18 03:25:12;;;;;;;24.93;11.20;;;2.30;99.90;;;;;;4957053;28;20200;-68
2024/01/18 03:27:39;;;;;;;26.10;11.00;;;2.30;99.90;;;;;;4990892;28;20671;-69
2024/01/18 03:30:08;;;;;;;23.30;10.43;;;2.30;99.90;;;;;;4979428;28;20199;-68
2024/01/18 03:32:35;;;;;;;19.03;9.33;;;2.30;99.90;;;;;;4989276;28;20283;-69
2024/01/18 03:35:04;;;;;;;19.77;9.43;;;2.30;99.90;;;;;;4983964;28;20537;-68
2024/01/18 03:37:31;;;;;;;25.63;10.67;;;2.40;99.90;;;;;;4988768;28;20199;-67
2024/01/18 03:39:58;;;;;;;26.50;12.47;;;2.30;99.90;;;;;;4973473;28;20204;-69
2024/01/18 03:42:25;;;;;;;27.93;12.17;;;2.30;99.90;;;;;;4973063;28;20611;-68
2024/01/18 03:44:52;;;;;;;28.73;12.60;;;2.40;99.90;;;;;;4986299;28;20202;-68
2024/01/18 03:47:20;;;;;;;36.63;15.20;;;2.50;99.90;;;;;;4991003;28;20619;-68
2024/01/18 03:49:47;;;;;;;34.43;14.20;;;2.50;99.90;;;;;;4968990;28;20595;-69
2024/01/18 03:52:16;;;;;;;27.60;13.03;;;2.50;99.90;;;;;;4986119;28;20287;-69
2024/01/18 03:54:43;;;;;;;26.97;12.97;;;2.50;99.90;;;;;;4987509;28;20200;-70
2024/01/18 03:57:10;;;;;;;22.77;11.50;;;2.50;99.90;;;;;;4992380;28;20548;-68
2024/01/18 03:59:37;;;;;;;25.77;11.87;;;2.50;99.90;;;;;;4993437;28;20203;-69
2024/01/18 04:02:05;;;;;;;25.17;11.53;;;2.50;99.90;;;;;;4992546;28;20200;-69
2024/01/18 04:04:32;;;;;;;22.20;11.10;;;2.60;99.90;;;;;;4986008;28;20751;-69
2024/01/18 04:06:59;;;;;;;27.43;12.00;;;2.60;99.90;;;;;;4994208;28;20535;-69
2024/01/18 04:09:27;;;;;;;21.67;10.87;;;2.50;99.90;;;;;;4988656;28;20286;-68
2024/01/18 04:11:55;;;;;;;20.07;10.03;;;2.50;99.90;;;;;;4994272;28;20195;-69
2024/01/18 04:14:22;;;;;;;22.57;11.10;;;2.50;99.90;;;;;;4988085;28;20196;-69
2024/01/18 04:16:49;;;;;;;19.53;10.10;;;2.50;99.90;;;;;;4994386;28;20203;-68
2024/01/18 04:19:16;;;;;;;28.73;12.73;;;2.50;99.90;;;;;;4970186;28;20622;-69
2024/01/18 04:21:43;;;;;;;29.37;13.40;;;2.50;99.90;;;;;;4973983;28;20346;-69
2024/01/18 04:24:11;;;;;;;26.10;12.43;;;2.50;99.90;;;;;;4992643;28;20212;-69
2024/01/18 04:26:39;;;;;;;24.10;10.40;;;2.50;99.90;;;;;;4992662;28;20294;-69
2024/01/18 04:29:07;;;;;;;28.00;13.30;;;2.50;99.90;;;;;;4993031;28;20664;-69
2024/01/18 04:31:34;;;;;;;26.40;12.83;;;2.40;99.90;;;;;;4993556;28;20227;-69
2024/01/18 04:34:01;;;;;;;27.37;11.47;;;2.40;99.90;;;;;;4981234;28;20208;-69
2024/01/18 04:36:28;;;;;;;22.63;11.10;;;2.40;99.90;;;;;;4993572;28;20203;-69
2024/01/18 04:38:55;;;;;;;21.20;10.07;;;2.30;99.90;;;;;;4962040;28;20294;-68
2024/01/18 04:41:22;;;;;;;23.90;10.77;;;2.30;99.90;;;;;;4985803;28;20270;-69
2024/01/18 04:43:51;;;;;;;20.00;9.70;;;2.30;99.90;;;;;;4989465;28;20258;-68
2024/01/18 04:46:19;;;;;;;21.90;10.43;;;2.20;99.90;;;;;;4986639;28;20246;-68
2024/01/18 04:48:46;;;;;;;16.10;8.80;;;2.20;99.90;;;;;;4990454;28;20206;-69
2024/01/18 04:51:14;;;;;;;17.53;8.27;;;2.20;99.90;;;;;;4981982;28;20203;-69
2024/01/18 04:53:41;;;;;;;17.77;8.30;;;2.20;99.90;;;;;;4987967;28;20199;-70
2024/01/18 04:56:08;;;;;;;22.93;11.20;;;2.30;99.90;;;;;;4989230;28;20208;-70
2024/01/18 04:58:36;;;;;;;24.30;11.60;;;2.30;99.90;;;;;;4988439;28;20203;-67
2024/01/18 05:01:04;;;;;;;20.97;10.37;;;2.30;99.90;;;;;;4988110;28;20202;-67
2024/01/18 05:03:31;;;;;;;18.03;9.23;;;2.30;99.90;;;;;;4986775;28;20208;-67
2024/01/18 05:05:58;;;;;;;14.70;7.80;;;2.30;99.90;;;;;;4986228;28;20263;-67
2024/01/18 05:08:26;;;;;;;16.27;8.20;;;2.30;99.90;;;;;;4992930;28;20638;-67
2024/01/18 05:10:54;;;;;;;13.67;7.67;;;2.30;99.90;;;;;;4981855;28;20199;-67
2024/01/18 05:13:22;;;;;;;15.33;7.73;;;2.30;99.90;;;;;;4993090;28;20206;-67
2024/01/18 05:15:49;;;;;;;16.40;8.57;;;2.30;99.90;;;;;;4975621;28;20214;-67
2024/01/18 05:18:18;;;;;;;23.17;11.20;;;2.40;99.90;;;;;;4992396;28;20196;-66
2024/01/18 05:20:45;;;;;;;19.17;9.47;;;2.40;99.90;;;;;;4989202;28;20207;-66
2024/01/18 05:23:12;;;;;;;22.20;10.63;;;2.40;99.90;;;;;;4989869;28;20200;-66
2024/01/18 05:25:39;;;;;;;21.30;10.37;;;2.40;99.90;;;;;;4974365;28;20251;-66
2024/01/18 05:28:06;;;;;;;17.10;8.57;;;2.40;99.90;;;;;;4992127;28;20211;-67
2024/01/18 05:30:33;;;;;;;21.20;10.40;;;2.40;99.90;;;;;;4980955;28;20195;-67
2024/01/18 05:33:00;;;;;;;19.97;10.00;;;2.40;99.90;;;;;;4978559;28;20203;-67
2024/01/18 05:35:29;;;;;;;22.50;11.10;;;2.40;99.90;;;;;;4988445;28;20720;-67
2024/01/18 05:37:56;;;;;;;21.57;10.77;;;2.40;99.90;;;;;;4981687;28;20192;-68
2024/01/18 05:40:23;;;;;;;19.13;10.33;;;2.50;99.90;;;;;;4989138;28;20269;-67
2024/01/18 05:42:50;;;;;;;23.73;11.20;;;2.60;99.90;;;;;;4972493;28;20635;-67
2024/01/18 05:45:17;;;;;;;26.93;11.87;;;2.50;99.90;;;;;;4986485;28;20250;-69
2024/01/18 05:47:44;;;;;;;26.10;11.50;;;2.60;99.90;;;;;;4975556;28;20532;-70
2024/01/18 05:50:12;;;;;;;23.33;11.33;;;2.60;99.90;;;;;;4972179;28;20203;-69
2024/01/18 05:52:40;;;;;;;22.37;11.17;;;2.60;99.90;;;;;;4982226;28;20196;-70
2024/01/18 05:55:08;;;;;;;26.07;11.50;;;2.60;99.90;;;;;;4975307;28;20254;-68
2024/01/18 05:57:37;;;;;;;18.93;10.40;;;2.60;99.90;;;;;;4991120;28;20200;-69
2024/01/18 06:00:05;;;;;;;25.90;12.93;;;2.60;99.90;;;;;;4989643;28;20282;-69
2024/01/18 06:02:32;;;;;;;25.47;11.70;;;2.60;99.90;;;;;;4990504;28;20211;-69
2024/01/18 06:05:00;;;;;;;25.90;12.60;;;2.60;99.90;;;;;;4984779;28;20223;-68
2024/01/18 06:07:27;;;;;;;25.63;12.83;;;2.60;99.90;;;;;;4990355;28;20247;-68
2024/01/18 06:09:55;;;;;;;22.23;11.03;;;2.60;99.90;;;;;;4992044;28;20203;-68
2024/01/18 06:12:22;;;;;;;26.10;12.10;;;2.60;99.90;;;;;;4991152;28;20196;-69
2024/01/18 06:14:49;;;;;;;28.13;13.30;;;2.60;99.90;;;;;;4990336;28;20192;-69
2024/01/18 06:17:16;;;;;;;24.33;12.30;;;2.60;99.90;;;;;;4973414;28;20203;-69
2024/01/18 06:19:43;;;;;;;25.83;11.90;;;2.60;99.90;;;;;;4971264;28;20274;-69
2024/01/18 06:22:10;;;;;;;24.73;11.17;;;2.50;99.90;;;;;;4984391;28;20278;-69
2024/01/18 06:24:37;;;;;;;21.67;10.47;;;2.60;99.90;;;;;;4988102;28;20608;-69
2024/01/18 06:27:06;;;;;;;21.47;9.67;;;2.50;99.90;;;;;;4991849;28;20265;-68
2024/01/18 06:29:34;;;;;;;23.87;10.80;;;2.40;99.90;;;;;;4993197;28;20208;-68
2024/01/18 06:32:02;;;;;;;16.30;8.43;;;2.50;99.90;;;;;;4983387;28;20212;-68
2024/01/18 06:34:29;;;;;;;14.87;8.13;;;2.40;99.90;;;;;;4990116;28;20200;-68
2024/01/18 06:36:56;;;;;;;26.33;12.30;;;2.50;99.90;;;;;;4989945;28;20250;-68
2024/01/18 06:39:23;;;;;;;21.03;10.17;;;2.50;99.90;;;;;;4980270;28;20200;-68
2024/01/18 06:41:50;;;;;;;20.90;10.33;;;2.50;99.90;;;;;;4991680;28;20287;-69
2024/01/18 06:44:18;;;;;;;24.07;11.00;;;2.60;99.90;;;;;;4970338;28;20227;-70
2024/01/18 06:46:45;;;;;;;20.67;10.00;;;2.60;99.90;;;;;;4974764;28;20714;-66
2024/01/18 06:49:13;;;;;;;27.37;13.63;;;2.60;99.90;;;;;;4980502;28;20216;-66
2024/01/18 06:51:41;;;;;;;25.50;11.80;;;2.60;99.90;;;;;;4991468;28;20207;-66
2024/01/18 06:54:08;;;;;;;22.87;12.00;;;2.60;99.90;;;;;;4967402;28;20627;-67
2024/01/18 06:56:35;;;;;;;19.10;10.10;;;2.50;99.90;;;;;;4991155;28;20211;-69
2024/01/18 06:59:02;;;;;;;20.33;9.97;;;2.50;99.90;;;;;;4962222;28;20251;-68
2024/01/18 07:01:30;;;;;;;15.47;9.67;;;2.50;99.90;;;;;;4985242;28;20204;-69
2024/01/18 07:03:57;;;;;;;13.13;7.53;;;2.50;99.90;;;;;;4954312;28;20636;-69
2024/01/18 07:06:24;;;;;;;19.60;10.23;;;2.50;99.90;;;;;;4962633;28;20298;-69
2024/01/18 07:08:51;;;;;;;24.27;10.50;;;2.50;99.90;;;;;;4973332;28;20290;-69
2024/01/18 07:11:19;;;;;;;18.40;9.37;;;2.50;99.90;;;;;;4972136;28;20553;-69
2024/01/18 07:13:46;;;;;;;18.80;9.80;;;2.50;99.90;;;;;;4980470;28;20212;-69
2024/01/18 07:16:13;;;;;;;18.70;10.27;;;2.40;99.90;;;;;;4983805;28;20540;-70
2024/01/18 07:18:41;;;;;;;18.77;9.40;;;2.50;99.90;;;;;;4983857;28;20188;-67
2024/01/18 07:21:08;;;;;;;25.00;11.60;;;2.50;99.90;;;;;;4981087;28;20258;-69
2024/01/18 07:23:35;;;;;;;18.70;10.07;;;2.50;99.90;;;;;;4979558;28;20196;-69
2024/01/18 07:26:03;;;;;;;17.33;9.37;;;2.50;99.90;;;;;;4979292;28;20192;-69
2024/01/18 07:28:30;;;;;;;15.60;8.33;;;2.50;99.90;;;;;;4986977;28;20243;-69
2024/01/18 07:30:57;;;;;;;19.83;10.40;;;2.50;99.90;;;;;;4988934;28;20207;-70
2024/01/18 07:33:24;;;;;;;20.07;10.57;;;2.60;99.90;;;;;;4985494;28;20202;-68
2024/01/18 07:35:52;;;;;;;18.73;8.90;;;2.60;99.90;;;;;;4985851;28;20686;-68
2024/01/18 07:38:19;;;;;;;15.07;8.57;;;2.60;99.90;;;;;;4986218;28;20203;-68
2024/01/18 07:40:46;;;;;;;16.03;7.93;;;2.60;99.90;;;;;;4970431;28;20885;-68
2024/01/18 07:43:14;;;;;;;13.23;6.90;;;2.60;99.90;;;;;;4986200;28;20198;-68
2024/01/18 07:45:43;;;;;;;14.07;7.57;;;2.70;99.90;;;;;;4988584;28;20230;-68
2024/01/18 07:48:10;;;;;;;12.67;7.70;;;2.60;99.90;;;;;;4986645;28;20233;-68
2024/01/18 07:50:38;;;;;;;15.17;8.07;;;2.60;99.90;;;;;;4988427;28;20196;-68
2024/01/18 07:53:07;;;;;;;19.27;9.37;;;2.70;99.90;;;;;;4991196;28;20204;-69
2024/01/18 07:55:34;;;;;;;20.43;10.23;;;2.70;99.90;;;;;;4986506;28;20667;-69
2024/01/18 07:58:01;;;;;;;22.07;10.60;;;2.80;99.90;;;;;;4968364;28;20195;-68
2024/01/18 08:00:29;;;;;;;24.83;11.93;;;2.90;99.90;;;;;;4979713;28;20226;-69
2024/01/18 08:02:56;;;;;;;21.07;10.80;;;3.10;99.90;;;;;;4972329;28;20287;-68
2024/01/18 08:05:24;;;;;;;22.57;10.60;;;3.20;99.90;;;;;;4985604;28;20742;-68
2024/01/18 08:07:51;;;;;;;24.50;12.77;;;3.40;99.90;;;;;;4986908;28;20219;-70
2024/01/18 08:10:20;;;;;;;16.87;10.10;;;3.40;99.90;;;;;;4991284;28;20251;-68
2024/01/18 08:12:49;;;;;;;31.17;11.93;;;3.40;99.90;;;;;;4991371;28;20671;-65
2024/01/18 08:15:16;;;;;;;21.27;10.40;;;3.40;99.90;;;;;;4974116;28;20204;-65
2024/01/18 08:17:44;;;;;;;21.47;11.03;;;3.40;99.90;;;;;;4989335;28;20204;-65
2024/01/18 08:20:13;;;;;;;25.30;11.67;;;3.60;99.90;;;;;;4979134;28;20263;-65
2024/01/18 08:22:41;;;;;;;23.33;11.33;;;3.80;99.90;;;;;;4988523;28;20223;-64
2024/01/18 08:25:10;;;;;;;20.40;10.10;;;3.90;99.90;;;;;;4979536;28;20541;-66
2024/01/18 08:27:39;;;;;;;24.23;11.03;;;4.00;99.90;;;;;;4989639;28;20188;-66
2024/01/18 08:30:07;;;;;;;27.43;12.07;;;4.00;99.90;;;;;;4979202;28;20669;-65
2024/01/18 08:32:35;;;;;;;21.77;12.07;;;4.00;99.90;;;;;;4989445;28;20192;-65
2024/01/18 08:35:03;;;;;;;29.93;12.10;;;4.10;99.90;;;;;;4977668;28;20228;-65
2024/01/18 08:37:30;;;;;;;24.97;12.03;;;4.10;99.90;;;;;;4983472;28;20639;-65
2024/01/18 08:39:57;;;;;;;20.90;11.03;;;4.40;99.90;;;;;;4975271;28;20697;-66
2024/01/18 08:42:24;;;;;;;21.77;11.73;;;4.60;99.90;;;;;;4987988;28;20556;-66
2024/01/18 08:44:52;;;;;;;26.30;12.63;;;4.90;99.90;;;;;;4972627;28;20204;-66
2024/01/18 08:47:21;;;;;;;25.57;11.63;;;5.00;99.90;;;;;;4988241;28;20746;-66
2024/01/18 08:49:48;;;;;;;27.47;12.27;;;5.10;99.90;;;;;;4973526;28;20228;-67
2024/01/18 08:52:15;;;;;;;28.80;12.53;;;5.40;99.90;;;;;;4980902;28;20663;-66
2024/01/18 08:54:43;;;;;;;25.70;12.70;;;5.40;99.60;;;;;;4984302;28;20195;-66
2024/01/18 08:57:10;;;;;;;26.73;11.97;;;5.50;99.50;;;;;;4989744;28;20739;-65
2024/01/18 08:59:37;;;;;;;23.73;12.80;;;5.60;99.40;;;;;;4983926;28;20192;-66
2024/01/18 09:02:06;;;;;;;31.90;14.97;;;5.60;99.10;;;;;;4988100;28;20594;-66
2024/01/18 09:04:32;;;;;;;30.20;15.07;;;5.70;98.70;;;;;;4985382;28;20303;-66
2024/01/18 09:07:00;;;;;;;30.13;15.00;;;5.80;98.40;;;;;;4988728;28;20205;-66
2024/01/18 09:09:28;;;;;;;27.33;14.00;;;5.90;98.20;;;;;;4978169;28;20216;-66
2024/01/18 09:11:55;;;;;;;24.37;13.53;;;5.90;98.20;;;;;;4986848;28;20306;-65
2024/01/18 09:14:23;;;;;;;28.47;13.90;;;5.90;98.20;;;;;;4986393;28;20211;-65
2024/01/18 09:16:50;;;;;;;25.97;13.00;;;5.70;98.10;;;;;;4986707;28;20762;-65
2024/01/18 09:19:20;;;;;;;31.40;14.27;;;5.50;98.10;;;;;;4982587;28;20188;-66
2024/01/18 09:21:47;;;;;;;26.10;11.70;;;5.40;98.30;;;;;;4983987;28;20192;-66
2024/01/18 09:24:15;;;;;;;31.00;13.80;;;5.30;98.40;;;;;;4982908;28;20254;-65
2024/01/18 09:26:42;;;;;;;28.83;13.40;;;5.30;98.40;;;;;;4973923;28;20196;-66
2024/01/18 09:29:09;;;;;;;26.67;13.20;;;5.20;98.40;;;;;;4983350;28;21050;-66
2024/01/18 09:31:36;;;;;;;24.20;10.53;;;5.10;98.60;;;;;;4988694;28;20195;-67
2024/01/18 09:34:03;;;;;;;26.87;13.03;;;5.20;98.70;;;;;;4986071;28;20207;-66
2024/01/18 09:36:32;;;;;;;26.20;11.77;;;5.10;98.60;;;;;;4984566;28;20664;-66
2024/01/18 09:38:59;;;;;;;20.10;10.40;;;5.20;98.60;;;;;;4973908;28;20647;-66
2024/01/18 09:41:27;;;;;;;23.87;10.43;;;5.20;98.60;;;;;;4977376;28;20247;-66
2024/01/18 09:43:56;;;;;;;20.30;10.50;;;5.20;98.60;;;;;;4988120;28;20557;-66
2024/01/18 09:46:23;;;;;;;19.60;9.60;;;5.20;98.70;;;;;;4967460;28;20702;-66
2024/01/18 09:48:51;;;;;;;17.47;8.53;;;5.20;98.60;;;;;;4976559;28;20210;-66
2024/01/18 09:51:21;;;;;;;15.57;7.60;;;5.10;98.60;;;;;;4983289;28;20219;-65
2024/01/18 09:53:54;;;;;;;13.90;6.57;;;5.10;98.70;;;;;;4977637;28;20616;-66
2024/01/18 09:56:24;;;;;;;13.67;6.57;;;5.20;98.80;;;;;;4978850;28;20192;-66
2024/01/18 09:58:51;;;;;;;14.80;7.17;;;5.30;98.70;;;;;;4976088;28;20199;-64
2024/01/18 10:01:21;;;;;;;10.27;5.70;;;5.50;98.70;;;;;;4965076;28;20292;-66
2024/01/18 10:03:49;;;;;;;11.70;5.60;;;5.70;98.60;;;;;;4984089;28;20204;-66
2024/01/18 10:06:18;;;;;;;12.53;6.47;;;6.00;98.40;;;;;;4962709;28;20230;-66
2024/01/18 10:08:45;;;;;;;10.67;5.93;;;6.40;98.30;;;;;;4982759;28;20229;-65
2024/01/18 10:11:14;;;;;;;9.43;5.47;;;6.70;98.00;;;;;;4987458;28;20205;-66
2024/01/18 10:14:02;;;;;;;9.77;5.40;;;6.90;97.70;;;;;;4980947;28;20277;-65
2024/01/18 10:16:30;;;;;;;14.20;6.97;;;7.40;97.40;;;;;;4976669;28;20199;-65
2024/01/18 10:18:57;;;;;;;11.80;6.47;;;7.60;96.50;;;;;;4982935;28;20550;-66
2024/01/18 10:21:25;;;;;;;9.60;5.70;;;7.80;95.60;;;;;;4979528;28;20202;-66
2024/01/18 10:23:53;;;;;;;13.73;6.40;;;8.10;95.30;;;;;;4979965;28;20651;-65
2024/01/18 10:26:22;;;;;;;10.67;5.50;;;8.50;95.00;;;;;;4981331;28;20211;-66
2024/01/18 10:28:50;;;;;;;10.93;5.53;;;8.90;94.80;;;;;;4961808;28;21152;-66
2024/01/18 10:31:17;;;;;;;10.27;5.70;;;9.80;94.20;;;;;;4981687;28;20694;-67
2024/01/18 10:33:46;;;;;;;8.70;5.30;;;10.60;92.50;;;;;;4976463;28;20256;-66
2024/01/18 10:36:13;;;;;;;9.37;4.87;;;11.40;91.10;;;;;;4977491;28;20197;-66
2024/01/18 10:38:41;;;;;;;7.63;4.53;;;11.80;89.90;;;;;;4976342;28;20226;-65
2024/01/18 10:41:08;;;;;;;9.73;4.20;;;11.50;88.00;;;;;;4980224;28;20265;-66
2024/01/18 10:43:37;;;;;;;7.03;4.37;;;10.90;87.90;;;;;;4978267;28;20606;-65
2024/01/18 10:46:05;;;;;;;8.57;3.90;;;10.50;88.10;;;;;;4965276;28;20210;-65
2024/01/18 10:48:34;;;;;;;9.87;4.47;;;10.10;88.40;;;;;;4978429;28;20239;-65
2024/01/18 10:51:01;;;;;;;5.73;3.20;;;9.60;88.80;;;;;;4982616;28;20758;-65
2024/01/18 10:53:32;;;;;;;4.27;2.90;;;9.20;89.40;;;;;;4982906;28;20559;-65
2024/01/18 10:55:59;;;;;;;5.03;3.17;;;8.90;90.10;;;;;;4978320;28;20272;-65
2024/01/18 10:58:26;;;;;;;5.50;3.23;;;8.70;90.30;;;;;;4980875;28;20194;-65
2024/01/18 11:00:56;;;;;;;8.27;3.93;;;8.50;90.40;;;;;;4983306;28;20351;-66
2024/01/18 11:03:24;;;;;;;5.70;3.67;;;8.40;90.00;;;;;;4973195;28;20222;-65
2024/01/18 11:05:52;;;;;;;9.47;3.53;;;8.20;89.90;;;;;;4984084;28;20244;-66
2024/01/18 11:08:19;;;;;;;6.40;3.40;;;8.10;90.00;;;;;;4974924;28;20195;-66
2024/01/18 11:10:49;;;;;;;7.50;3.63;;;8.00;90.10;;;;;;4979427;28;20727;-66
2024/01/18 11:13:18;;;;;;;4.87;3.60;;;7.80;90.00;;;;;;4984973;28;20666;-66
2024/01/18 11:15:47;;;;;;;7.23;3.60;;;7.50;90.10;;;;;;4966302;28;20678;-66
2024/01/18 11:18:16;;;;;;;4.53;3.10;;;7.30;90.20;;;;;;4981897;28;20235;-66
2024/01/18 11:21:04;;;;;;;5.30;3.07;;;7.20;90.50;;;;;;4978029;28;20192;-66
2024/01/18 11:23:35;;;;;;;6.67;3.73;;;7.00;90.70;;;;;;4978919;28;20192;-66
2024/01/18 11:26:05;;;;;;;4.33;3.03;;;6.90;90.80;;;;;;4982447;28;20636;-66
2024/01/18 11:28:33;;;;;;;5.27;3.30;;;6.90;90.90;;;;;;4982154;28;20204;-66
2024/01/18 11:31:00;;;;;;;8.50;3.53;;;6.80;90.90;;;;;;4979374;28;20821;-66
2024/01/18 11:33:29;;;;;;;11.63;4.30;;;6.70;91.00;;;;;;4982120;28;20681;-66
2024/01/18 11:35:57;;;;;;;4.77;3.33;;;6.80;91.10;;;;;;4978069;28;20196;-66
2024/01/18 11:38:28;;;;;;;6.43;2.90;;;6.80;91.20;;;;;;4986036;28;20315;-66
2024/01/18 11:40:58;;;;;;;7.40;3.30;;;6.70;91.30;;;;;;4984650;28;20206;-65
2024/01/18 11:43:25;;;;;;;5.67;3.37;;;6.70;91.30;;;;;;4982341;28;20205;-65
2024/01/18 11:45:56;;;;;;;4.53;3.03;;;6.60;91.30;;;;;;4974721;28;20247;-66
2024/01/18 11:48:23;;;;;;;3.67;2.77;;;6.50;91.40;;;;;;4977640;28;20300;-65
2024/01/18 11:50:51;;;;;;;5.47;3.37;;;6.40;91.80;;;;;;4984724;28;20193;-65
2024/01/18 11:53:19;;;;;;;6.90;3.37;;;6.30;91.60;;;;;;4979152;28;20223;-65
2024/01/18 11:55:50;;;;;;;3.73;2.60;;;6.30;91.80;;;;;;4977224;28;20511;-67
2024/01/18 11:58:17;;;;;;;3.00;2.50;;;6.30;91.90;;;;;;4983323;28;20188;-65
2024/01/18 12:00:44;;;;;;;4.37;2.63;;;6.30;92.00;;;;;;4974135;28;20315;-66
2024/01/18 12:03:12;;;;;;;4.80;3.30;;;6.40;92.00;;;;;;4981091;28;20219;-66
2024/01/18 12:05:41;;;;;;;7.87;3.70;;;6.40;91.90;;;;;;4985058;28;20600;-66
2024/01/18 12:08:10;;;;;;;7.93;3.53;;;6.50;91.90;;;;;;4975596;28;20579;-66
2024/01/18 12:10:37;;;;;;;4.33;2.87;;;6.50;91.80;;;;;;4984851;28;20755;-65
2024/01/18 12:13:05;;;;;;;5.40;2.80;;;6.50;91.70;;;;;;4984074;28;20254;-66
2024/01/18 12:15:32;;;;;;;3.40;2.30;;;6.50;91.70;;;;;;4975673;28;20204;-66
2024/01/18 12:17:59;;;;;;;4.77;2.67;;;6.40;91.70;;;;;;4984880;28;20206;-66
2024/01/18 12:20:27;;;;;;;3.87;2.37;;;6.40;91.70;;;;;;4978603;28;20257;-66
2024/01/18 12:22:54;;;;;;;3.70;2.23;;;6.30;91.70;;;;;;4989103;28;20201;-66
2024/01/18 12:25:23;;;;;;;7.43;2.63;;;6.30;91.80;;;;;;4974376;28;20203;-66
2024/01/18 12:27:50;;;;;;;5.20;2.53;;;6.30;91.70;;;;;;4987729;28;20205;-67
2024/01/18 12:30:18;;;;;;;3.30;1.90;;;6.40;91.70;;;;;;4982627;28;20274;-66
2024/01/18 12:32:45;;;;;;;3.83;2.10;;;6.50;91.80;;;;;;4976933;28;20210;-66
2024/01/18 12:35:12;;;;;;;2.57;1.93;;;6.80;91.70;;;;;;4973614;28;20227;-66
2024/01/18 12:37:40;;;;;;;5.13;2.40;;;6.90;91.50;;;;;;4984517;28;20281;-66
2024/01/18 12:40:11;;;;;;;2.30;2.10;;;6.80;90.90;;;;;;4981145;28;20211;-66
2024/01/18 12:42:40;;;;;;;5.03;2.90;;;6.70;90.90;;;;;;4984431;28;20198;-65